Terminal Aerodrome Forecast
Issued by NWS Des Moines, IA

Current Version | Previous Version | Text Only | Print | Product List | Glossary On
Versions: 1 2 3 4 5 6 7 8 9 10 11 12 13 14 15 16 17 18 19 20 21 22
000
FTUS43 KDMX 261221 AAA
TAFDSM
TAF AMD
KDSM 261221Z 2612/2712 26004KT P6SM OVC003
      TEMPO 2612/2614 5SM -RA BR SCT003 BKN015
     FM261600 31012KT P6SM OVC014
     FM262200 34012KT P6SM BKN035
     FM270200 25008KT P6SM SCT030 BKN220=

USA.gov is the U.S. government's official web portal to all federal, state and local government web resources and services.